• Join FlightAware (Why Join?)
  • Login
  • US Flag 
10:19PM EDT


 

Airport Tracker/Info


-or-


 

Live Flight TrackerFlight Track Log ✈ N9205P ✈ 30-Sep-2013 ✈ KVOK - KCQM

Flight Track Log - Related Links

Times and Time Zones

All times are in EDT time to prevent confusion due to time zone crossing. See the N9205P flight status page for this flight to view local times or setup timezone preferences in your user account.

Time Position Orientation Groundspeed Altitude Reporting Facility
EDT Latitude Longitude Course Direction KTS MPH feet Rate Location/Type
01:04PM 43.8167 -89.8867 337° Northwest 158 182 6,400  Level Chicago Center
01:05PM 43.8544 -89.9153 331° Northwest 157 181 6,300 -60 Descending Chicago Center
01:06PM 43.8944 -89.9442 333° Northwest 159 183 6,300 60 Level Chicago Center
01:07PM 43.9417 -89.9769 333° Northwest 159 183 6,500 60 Climbing Chicago Center
01:08PM 43.9822 -90.0036 335° Northwest 160 184 6,500 -60 Level Chicago Center
01:09PM 44.1953 -90.4029 337° Northwest  Level Estimated
01:09PM 44.0208 -90.0325 332° Northwest 159 183 6,400  Level Chicago Center
01:10PM 44.0589 -90.0622 331° Northwest 159 183 6,500  Climbing Chicago Center
01:11PM 44.1006 -90.0864 337° Northwest 159 183 6,500  Level Chicago Center
01:12PM 44.1436 -90.1083 340° North 161 185 6,500 -120 Level Chicago Center
01:13PM 44.1972 -90.1342 341° North 164 189 6,300  Descending Chicago Center
01:14PM 44.2419 -90.1531 343° North 164 189 6,500 60 Climbing Minneapolis Center
01:15PM 44.2844 -90.1756 339° North 158 182 6,500  Level Minneapolis Center
01:16PM 44.3256 -90.2069 331° Northwest 160 184 6,500  Level Minneapolis Center
01:17PM 44.3689 -90.2356 335° Northwest 164 189 6,500  Level Minneapolis Center
01:18PM 44.4097 -90.2661 332° Northwest 161 185 6,500 -60 Level Minneapolis Center
01:19PM 44.4506 -90.2925 335° Northwest 156 180 6,400  Descending Minneapolis Center
01:20PM 44.4900 -90.3178 335° Northwest 160 184 6,500  Climbing Minneapolis Center
01:21PM 44.5281 -90.3522 327° Northwest 156 180 6,500  Level Minneapolis Center
01:22PM 44.5694 -90.3789 335° Northwest 158 182 6,500  Level Minneapolis Center
01:24PM 44.6128 -90.4042 337° Northwest 160 184 6,500 -60 Level Minneapolis Center
01:25PM 44.6547 -90.4317 335° Northwest 159 183 6,400 -120 Descending Minneapolis Center
01:26PM 44.6967 -90.4600 334° Northwest 160 184 6,300  Descending Minneapolis Center
01:27PM 44.7378 -90.4892 333° Northwest 158 182 6,500  Climbing Minneapolis Center
01:28PM 44.7756 -90.5147 334° Northwest 156 180 6,300 -180 Descending Minneapolis Center
01:29PM 44.8181 -90.5414 336° Northwest 159 183 6,200  Descending Minneapolis Center
01:30PM 44.8603 -90.5675 336° Northwest 159 183 6,400  Climbing Minneapolis Center
01:31PM 44.8983 -90.5967 332° Northwest 150 173 6,300 -60 Descending Minneapolis Center
01:32PM 44.9381 -90.6247 333° Northwest 153 176 6,300 -60 Level Minneapolis Center
01:33PM 44.9794 -90.6514 336° Northwest 157 181 6,200  Descending Minneapolis Center
01:34PM 45.0217 -90.6772 337° Northwest 157 181 6,300  Climbing Minneapolis Center
01:35PM 45.0589 -90.7031 334° Northwest 156 180 6,300 -60 Level Minneapolis Center
01:37PM 45.1109 -90.7591 323° Northwest  Level FlightAware Approximate
01:40PM 45.2575 -90.8406 332° Northwest 158 182 6,200  Level Minneapolis Center
01:41PM 45.2972 -90.8711 332° Northwest 159 183 6,200 60 Level Minneapolis Center
01:42PM 45.3364 -90.9019 331° Northwest 160 184 6,400  Climbing Minneapolis Center
01:43PM 45.3758 -90.9342 330° Northwest 161 185 6,300  Descending Minneapolis Center
01:44PM 45.3554 -90.9647 335° Northwest  Level FlightAware Approximate
01:44PM 45.4144 -90.9639 332° Northwest 160 184 6,400  Level Minneapolis Center
01:45PM 45.3918 -90.9896 332° Northwest  Level FlightAware Approximate
01:45PM 45.4533 -90.9953 330° Northwest 160 184 6,400  Level Minneapolis Center
01:46PM 45.5000 -91.0319 331° Northwest 160 184 6,500  Climbing Minneapolis Center
01:47PM 45.5400 -91.0619 332° Northwest 162 186 6,500 -60 Level Minneapolis Center
01:48PM 45.5800 -91.0942 331° Northwest 163 188 6,400 -60 Descending Minneapolis Center
01:49PM 45.6203 -91.1292 329° Northwest 166 191 6,400  Level Minneapolis Center
01:50PM 45.6597 -91.1614 330° Northwest 166 191 6,500 60 Climbing Minneapolis Center
01:51PM 45.6989 -91.1928 331° Northwest 163 188 6,600  Climbing Minneapolis Center
01:52PM 45.7411 -91.2231 333° Northwest 165 190 6,600  Level Minneapolis Center
01:53PM 45.7914 -91.2614 332° Northwest 169 194 6,600  Level Minneapolis Center
01:54PM 45.8344 -91.2867 338° Northwest 168 193 6,700  Climbing Minneapolis Center
01:55PM 45.8744 -91.3128 336° Northwest 164 189 6,700 -60 Level Minneapolis Center
01:56PM 45.9111 -91.3428 330° Northwest 155 178 6,600 -120 Descending Minneapolis Center
01:57PM 45.9522 -91.3733 333° Northwest 159 183 6,500 -60 Descending Minneapolis Center
01:58PM 45.9928 -91.4042 332° Northwest 163 188 6,500  Level Minneapolis Center
02:00PM 46.0300 -91.4433 324° Northwest 156 180 6,500  Level Minneapolis Center
02:01PM 46.0636 -91.4742 328° Northwest 149 171 6,500  Level Minneapolis Center
02:02PM 46.1075 -91.5003 338° Northwest 151 174 6,600  Climbing Minneapolis Center
02:03PM 46.1497 -91.5344 331° Northwest 159 183 6,500 -60 Descending Minneapolis Center
02:04PM 46.1894 -91.5644 332° Northwest 152 175 6,500  Level Minneapolis Center
02:05PM 46.2253 -91.5867 337° Northwest 155 178 6,500  Level Minneapolis Center
02:06PM 46.2650 -91.6169 332° Northwest 158 182 6,500  Level Minneapolis Center
02:07PM 46.3028 -91.6453 333° Northwest 158 182 6,500 -120 Level Minneapolis Center
02:08PM 46.3467 -91.6803 331° Northwest 153 176 6,300 -120 Descending Minneapolis Center
02:09PM 46.3842 -91.7061 335° Northwest 151 174 6,300  Level Minneapolis Center
02:10PM 46.4219 -91.7322 335° Northwest 150 173 6,300  Level Minneapolis Center
02:11PM 46.4594 -91.7589 334° Northwest 151 174 6,300  Level Minneapolis Center
02:12PM 46.4969 -91.7842 335° Northwest 150 173 6,300  Level Minneapolis Center
02:13PM 46.5342 -91.8106 334° Northwest 150 173 6,300  Level Minneapolis Center
02:14PM 46.5786 -91.8439 333° Northwest 150 173 6,400  Climbing Minneapolis Center
02:15PM 46.6153 -91.8708 333° Northwest 149 171 6,400 60 Level Minneapolis Center
02:16PM 46.6528 -91.8967 335° Northwest 149 171 6,600 60 Climbing Minneapolis Center
02:17PM 46.6892 -91.9244 332° Northwest 148 170 6,600  Level Minneapolis Center
02:18PM 46.7225 -91.9556 327° Northwest 147 169 6,600  Level Minneapolis Center
02:19PM 46.7542 -91.9919 322° Northwest 146 168 6,600  Level Minneapolis Center
02:20PM 46.7900 -92.0364 320° Northwest 144 166 6,600  Level Minneapolis Center
02:21PM 46.8206 -92.0733 320° Northwest 142 163 6,600  Level Minneapolis Center
02:22PM 46.8564 -92.1031 330° Northwest 144 166 6,600 -60 Level Minneapolis Center
02:23PM 46.8919 -92.1300 333° Northwest 145 167 6,500 -180 Descending Minneapolis Center
02:24PM 46.9286 -92.1592 331° Northwest 147 169 6,300 -120 Descending Minneapolis Center
02:25PM 46.9628 -92.1911 327° Northwest 147 169 6,300  Level Minneapolis Center
02:26PM 47.0025 -92.2303 326° Northwest 146 168 6,300  Level Minneapolis Center
02:27PM 47.0378 -92.2592 331° Northwest 145 167 6,300  Level Minneapolis Center
02:28PM 47.0733 -92.2861 333° Northwest 145 167 6,300  Level Minneapolis Center
02:30PM 47.1119 -92.3075 339° North 145 167 6,300  Level Minneapolis Center
02:31PM 47.1514 -92.3283 340° North 148 170 6,300  Level Minneapolis Center
02:32PM 47.1942 -92.3603 333° Northwest 147 169 6,400  Climbing Minneapolis Center
02:33PM 47.2308 -92.3886 332° Northwest 148 170 6,300 -60 Descending Minneapolis Center
02:34PM 47.2667 -92.4150 333° Northwest 146 168 6,300  Level Minneapolis Center
02:35PM 47.3019 -92.4436 331° Northwest 146 168 6,300  Level Minneapolis Center
02:36PM 47.3369 -92.4708 332° Northwest 144 166 6,300  Level Minneapolis Center
02:37PM 47.3725 -92.4978 333° Northwest 144 166 6,300  Level Minneapolis Center
02:38PM 47.4158 -92.5306 333° Northwest 145 167 6,300  Level Minneapolis Center
02:39PM 47.4522 -92.5544 336° Northwest 145 167 6,300  Level Minneapolis Center
02:40PM 47.4892 -92.5778 337° Northwest 145 167 6,300  Level Minneapolis Center
02:41PM 47.5250 -92.6025 335° Northwest 144 166 6,300  Level Minneapolis Center
02:43PM 47.5866 -92.5673 21° North  Level FlightAware Approximate
02:50PM 47.8167 -92.6833 North  Level FlightAware Approximate
02:51PM 47.8221 -92.6905 North  Level Estimated
02:52PM 47.8221 -92.6905 North  Level Estimated
02:53PM 47.8221 -92.6905 North  Level Estimated
02:54PM 47.8221 -92.6905 North  Level Estimated
02:55PM 47.8221 -92.6905 North  Level Estimated
02:56PM 47.8221 -92.6905 North  Level Estimated
02:57PM 47.8221 -92.6905 North  Level Estimated
02:58PM 47.8221 -92.6905 North  Level Estimated
02:59PM 47.8221 -92.6905 North  Level Estimated
03:00PM 47.8221 -92.6905 North  Level Estimated
03:01PM 47.8221 -92.6905 North  Level Estimated
03:02PM 47.8221 -92.6905 North  Level Estimated
03:03PM 47.8221 -92.6905 North  Level Estimated
03:04PM 47.8221 -92.6905 North  Level Estimated
03:05PM 47.8221 -92.6905 North  Level Estimated